CheckWX is a tool to help pilots better visualize weather data.  It is not intended as a substitute for an official pre-flight weather briefing.

07:15:03 UTC

SVMC TAF
La Chinita International Airport
Maracaibo, Venezuela
TAF SVMC 160400Z 1606/1706 00000KT 9999 SCT013 TX35/1900Z TN24/0700Z TEMPO 1606/1610 FEW013

Jun-16@
06:00 UTC

Jun-16 @ 06:00 UTC

Jun-17@
06:00 UTC

Jun-17 @ 06:00 UTC

TAF SVMC 160400Z 1606/1706 00000KT 9999 SCT013 TX35/1900Z TN24/0700Z
Cloud Levels
  • Scattered at 1,300' AGL

Jun-16@
06:00 UTC

Jun-16 @ 06:00 UTC

Jun-16@
10:00 UTC

Jun-16 @ 10:00 UTC

TEMPO 1606/1610 FEW013

Temporary

Temporary Changes expected for less than half the time period

Cloud Levels
  • Few at 1,300' AGL